Terminal Aerodrome Forecast
Issued by NWS

Home | Current Version | Previous Version | Text Only | Print | Product List | Glossary On
Versions: 1 2 3 4 5 6 7 8 9 10 11 12 13 14 15 16 17 18 19
000
FTUS45 KGJT 201403 AAA
TAFCNY
TAF AMD
KCNY 201403Z 2014/2112 VRB03KT P6SM FEW040 SCT110
      TEMPO 2014/2016 1SM BR BKN001 BKN008
     FM202100 21008KT P6SM SCT250
     FM210100 18009KT P6SM BKN120
     FM210800 19005KT P6SM SCT070=

USA.gov is the U.S. government's official web portal to all federal, state and local government web resources and services.